createdAt,value
2019-02-04T00:00:45.016Z,2.30
2019-02-04T00:03:11.382Z,1.93
2019-02-04T00:05:37.908Z,2.20
2019-02-04T00:08:04.263Z,2.03
2019-02-04T00:10:30.608Z,2.10
2019-02-04T00:12:56.960Z,2.10
2019-02-04T00:15:23.297Z,1.97
2019-02-04T00:17:49.664Z,2.03
2019-02-04T00:20:16.048Z,2.00
2019-02-04T00:22:42.527Z,1.93
2019-02-04T00:25:08.958Z,1.87
2019-02-04T00:27:35.514Z,2.20
2019-02-04T00:30:01.860Z,2.10
2019-02-04T00:32:28.231Z,2.03
2019-02-04T00:34:54.706Z,1.90
2019-02-04T00:37:21.063Z,1.80
2019-02-04T00:39:47.399Z,2.07
2019-02-04T00:42:13.757Z,2.10
2019-02-04T00:44:40.094Z,1.90
2019-02-04T00:47:06.448Z,1.80
2019-02-04T00:49:32.805Z,2.10
2019-02-04T00:51:59.173Z,1.90
2019-02-04T00:54:25.582Z,2.13
2019-02-04T00:56:51.950Z,1.80
2019-02-04T00:59:18.313Z,2.10
2019-02-04T01:01:44.656Z,1.80
2019-02-04T01:04:11.002Z,1.97
2019-02-04T01:06:37.374Z,1.87
2019-02-04T01:09:03.830Z,1.57
2019-02-04T01:11:30.238Z,1.80
2019-02-04T01:13:56.534Z,1.70
2019-02-04T01:16:22.900Z,1.90
2019-02-04T01:18:49.262Z,1.77
2019-02-04T01:21:15.588Z,1.83
2019-02-04T01:23:41.980Z,1.90
2019-02-04T01:26:08.318Z,1.70
2019-02-04T01:28:34.670Z,1.77
2019-02-04T01:31:01.002Z,1.43
2019-02-04T01:33:27.361Z,1.70
2019-02-04T01:35:53.711Z,1.70
2019-02-04T01:38:20.042Z,1.60
2019-02-04T01:40:46.427Z,1.60
2019-02-04T01:43:12.768Z,1.53
2019-02-04T01:45:39.097Z,1.57
2019-02-04T01:48:05.448Z,1.50
2019-02-04T01:50:31.791Z,1.50
2019-02-04T01:52:58.113Z,1.57
2019-02-04T01:55:24.453Z,1.40
2019-02-04T01:57:50.794Z,1.50
2019-02-04T02:00:17.135Z,1.27
2019-02-04T02:02:43.601Z,1.20
2019-02-04T02:05:09.996Z,1.50
2019-02-04T02:07:36.328Z,1.30
2019-02-04T02:10:02.658Z,1.33
2019-02-04T02:12:28.998Z,1.50
2019-02-04T02:14:55.382Z,1.20
2019-02-04T02:17:26.407Z,1.40
2019-02-04T02:19:48.069Z,1.10
2019-02-04T02:22:14.448Z,1.30
2019-02-04T02:24:40.919Z,1.40
2019-02-04T02:27:07.190Z,1.40
2019-02-04T02:29:33.521Z,1.27
2019-02-04T02:31:59.917Z,1.10
2019-02-04T02:34:26.239Z,1.23
2019-02-04T02:36:52.583Z,1.40
2019-02-04T02:39:18.963Z,1.33
2019-02-04T02:41:45.292Z,1.30
2019-02-04T02:44:11.704Z,1.30
2019-02-04T02:46:37.976Z,1.20
2019-02-04T02:49:04.321Z,1.10
2019-02-04T02:51:30.645Z,1.30
2019-02-04T02:53:56.975Z,1.20
2019-02-04T02:56:23.315Z,1.20
2019-02-04T02:58:49.664Z,1.10
2019-02-04T03:01:16.010Z,1.20
2019-02-04T03:03:42.344Z,1.20
2019-02-04T03:06:08.737Z,1.10
2019-02-04T03:08:35.071Z,1.00
2019-02-04T03:11:01.417Z,1.10
2019-02-04T03:13:27.755Z,1.20
2019-02-04T03:15:54.196Z,1.10
2019-02-04T03:18:20.542Z,1.20
2019-02-04T03:20:46.862Z,1.03
2019-02-04T03:23:13.226Z,1.30
2019-02-04T03:25:39.554Z,1.50
2019-02-04T03:28:06.036Z,1.20
2019-02-04T03:30:32.364Z,1.20
2019-02-04T03:32:58.713Z,1.30
2019-02-04T03:35:25.021Z,1.30
2019-02-04T03:37:52.314Z,1.30
2019-02-04T03:40:17.849Z,1.27
2019-02-04T03:42:44.176Z,1.30
2019-02-04T03:45:10.610Z,1.10
2019-02-04T03:47:36.940Z,1.10
2019-02-04T03:50:03.258Z,1.10
2019-02-04T03:52:29.590Z,1.23
2019-02-04T03:54:55.929Z,1.13
2019-02-04T03:57:22.271Z,1.20
2019-02-04T03:59:48.645Z,1.10
2019-02-04T04:02:15.000Z,1.20
2019-02-04T04:04:41.335Z,1.10
2019-02-04T04:07:07.667Z,1.20
2019-02-04T04:09:34.068Z,1.00
2019-02-04T04:12:00.323Z,1.30
2019-02-04T04:14:26.647Z,1.33
2019-02-04T04:16:53.049Z,1.20
2019-02-04T04:19:19.364Z,1.37
2019-02-04T04:21:45.720Z,1.70
2019-02-04T04:24:12.104Z,1.30
2019-02-04T04:26:38.455Z,1.50
2019-02-04T04:29:04.850Z,1.20
2019-02-04T04:31:31.145Z,1.37
2019-02-04T04:33:57.472Z,1.40
2019-02-04T04:36:23.834Z,1.30
2019-02-04T04:38:50.138Z,1.20
2019-02-04T04:41:16.478Z,1.10
2019-02-04T04:43:42.832Z,1.40
2019-02-04T04:46:09.149Z,1.40
2019-02-04T04:48:35.477Z,1.30
2019-02-04T04:51:01.868Z,1.80
2019-02-04T04:53:28.255Z,1.83
2019-02-04T04:55:54.611Z,2.37
2019-02-04T04:58:20.946Z,1.80
2019-02-04T05:00:47.315Z,1.93
2019-02-04T05:03:13.665Z,2.60
2019-02-04T05:05:40.113Z,1.97
2019-02-04T05:08:06.527Z,2.67
2019-02-04T05:10:32.859Z,2.27
2019-02-04T05:12:59.187Z,1.57
2019-02-04T05:15:25.556Z,1.50
2019-02-04T05:17:52.705Z,1.80
2019-02-04T05:20:18.314Z,2.03
2019-02-04T05:22:44.658Z,1.90
2019-02-04T05:25:10.982Z,1.80
2019-02-04T05:27:37.335Z,1.80
2019-02-04T05:30:03.705Z,1.70
2019-02-04T05:32:30.043Z,1.70
2019-02-04T05:34:57.507Z,1.40
2019-02-04T05:37:22.731Z,2.00
2019-02-04T05:39:49.125Z,1.70
2019-02-04T05:42:15.513Z,1.40
2019-02-04T05:44:41.849Z,1.73
2019-02-04T05:47:08.353Z,1.87
2019-02-04T05:49:34.775Z,2.23
2019-02-04T05:52:01.104Z,1.73
2019-02-04T05:54:27.505Z,2.30
2019-02-04T05:56:53.894Z,3.00
2019-02-04T05:59:20.239Z,3.33
2019-02-04T06:01:46.577Z,2.40
2019-02-04T06:04:12.968Z,2.50
2019-02-04T06:06:39.362Z,2.80
2019-02-04T06:09:05.699Z,2.87
2019-02-04T06:11:32.082Z,1.90
2019-02-04T06:13:58.399Z,3.00
2019-02-04T06:16:24.743Z,3.00
2019-02-04T06:19:00.530Z,1.90
2019-02-04T06:21:17.420Z,2.40
2019-02-04T06:23:43.821Z,3.30
2019-02-04T06:26:10.192Z,1.93
2019-02-04T06:28:36.522Z,2.33
2019-02-04T06:31:02.924Z,2.00
2019-02-04T06:33:29.341Z,2.20
2019-02-04T06:35:55.670Z,2.23
2019-02-04T06:38:22.016Z,2.00
2019-02-04T06:40:48.386Z,2.70
2019-02-04T06:43:14.705Z,2.67
2019-02-04T06:45:41.057Z,2.27
2019-02-04T06:48:07.427Z,2.27
2019-02-04T06:50:33.800Z,1.67
2019-02-04T06:53:00.131Z,2.43
2019-02-04T06:55:26.461Z,1.77
2019-02-04T06:57:52.794Z,1.57
2019-02-04T07:00:19.129Z,2.20
2019-02-04T07:02:45.491Z,1.80
2019-02-04T07:05:11.805Z,2.00
2019-02-04T07:07:38.206Z,1.77
2019-02-04T07:10:04.579Z,1.63
2019-02-04T07:12:30.928Z,1.80
2019-02-04T07:14:57.248Z,2.00
2019-02-04T07:17:23.718Z,1.77
2019-02-04T07:19:50.113Z,1.67
2019-02-04T07:22:16.540Z,1.50
2019-02-04T07:24:43.252Z,1.60
2019-02-04T07:27:09.279Z,1.63
2019-02-04T07:29:35.710Z,1.57
2019-02-04T07:32:02.060Z,1.90
2019-02-04T07:34:28.464Z,1.37
2019-02-04T07:36:54.870Z,1.50
2019-02-04T07:39:21.194Z,1.87
2019-02-04T07:41:47.532Z,1.73
2019-02-04T07:44:13.900Z,1.90
2019-02-04T07:46:40.389Z,1.70
2019-02-04T07:49:07.991Z,1.70
2019-02-04T07:51:33.106Z,1.60
2019-02-04T07:53:59.497Z,2.10
2019-02-04T07:56:25.830Z,1.80
2019-02-04T07:58:52.171Z,1.73
2019-02-04T08:01:18.518Z,1.50
2019-02-04T08:03:44.868Z,1.80
2019-02-04T08:06:11.245Z,2.07
2019-02-04T08:08:37.585Z,2.00
2019-02-04T08:11:04.070Z,2.17
2019-02-04T08:13:30.404Z,1.93
2019-02-04T08:15:56.788Z,1.90
2019-02-04T08:18:23.813Z,2.97
2019-02-04T08:20:50.240Z,2.10
2019-02-04T08:23:16.569Z,1.80
2019-02-04T08:25:42.922Z,1.60
2019-02-04T08:28:09.432Z,1.97
2019-02-04T08:30:37.931Z,1.43
2019-02-04T08:33:03.283Z,2.07
2019-02-04T08:35:29.652Z,1.77
2019-02-04T08:37:56.008Z,1.70
2019-02-04T08:40:22.358Z,1.93
2019-02-04T08:42:48.701Z,1.83
2019-02-04T08:45:15.184Z,2.23
2019-02-04T08:47:41.611Z,1.60
2019-02-04T08:50:10.091Z,1.67
2019-02-04T08:52:36.560Z,2.00
2019-02-04T08:55:02.949Z,1.70
2019-02-04T08:57:29.313Z,1.93
2019-02-04T08:59:55.698Z,1.80
2019-02-04T09:02:22.149Z,1.70
2019-02-04T09:04:48.501Z,2.20
2019-02-04T09:07:14.845Z,2.07
2019-02-04T09:09:41.212Z,2.47
2019-02-04T09:12:07.872Z,1.80
2019-02-04T09:14:34.283Z,1.80
2019-02-04T09:17:00.672Z,1.90
2019-02-04T09:19:27.038Z,2.40
2019-02-04T09:21:53.376Z,1.90
2019-02-04T09:24:19.737Z,2.00
2019-02-04T09:26:46.075Z,2.13
2019-02-04T09:29:12.426Z,1.80
2019-02-04T09:31:38.788Z,2.23
2019-02-04T09:34:05.191Z,2.20
2019-02-04T09:36:31.665Z,2.20
2019-02-04T09:38:58.189Z,1.80
2019-02-04T09:41:24.547Z,2.10
2019-02-04T09:43:50.923Z,2.60
2019-02-04T09:46:17.306Z,2.03
2019-02-04T09:48:43.747Z,2.17
2019-02-04T09:51:10.147Z,2.57
2019-02-04T09:53:36.489Z,2.63
2019-02-04T09:56:02.880Z,2.67
2019-02-04T09:58:29.310Z,2.27
2019-02-04T10:00:55.672Z,2.33
2019-02-04T10:03:22.089Z,2.63
2019-02-04T10:05:48.444Z,2.50
2019-02-04T10:08:14.855Z,2.57
2019-02-04T10:10:41.284Z,2.30
2019-02-04T10:13:07.632Z,2.27
2019-02-04T10:15:34.152Z,2.10
2019-02-04T10:18:00.570Z,2.30
2019-02-04T10:20:34.127Z,1.80
2019-02-04T10:22:53.292Z,1.97
2019-02-04T10:25:19.660Z,1.70
2019-02-04T10:27:46.068Z,2.60
2019-02-04T10:30:12.430Z,2.00
2019-02-04T10:32:38.752Z,2.20
2019-02-04T10:35:16.406Z,1.80
2019-02-04T10:37:31.606Z,1.80
2019-02-04T10:39:57.915Z,2.00
2019-02-04T10:42:24.322Z,1.83
2019-02-04T10:44:50.828Z,1.73
2019-02-04T10:47:17.132Z,1.90
2019-02-04T10:49:43.446Z,1.80
2019-02-04T10:52:09.839Z,2.20
2019-02-04T10:54:36.210Z,1.80
2019-02-04T10:57:02.631Z,1.87
2019-02-04T10:59:29.902Z,1.67
2019-02-04T11:01:55.302Z,1.70
2019-02-04T11:04:21.677Z,1.70
2019-02-04T11:06:48.063Z,1.53
2019-02-04T11:09:14.480Z,1.53
2019-02-04T11:11:40.771Z,1.53
2019-02-04T11:14:07.101Z,2.23
2019-02-04T11:16:33.487Z,1.93
2019-02-04T11:18:59.885Z,2.10
2019-02-04T11:21:26.250Z,1.80
2019-02-04T11:23:52.750Z,2.00
2019-02-04T11:26:19.116Z,1.87
2019-02-04T11:28:45.497Z,2.27
2019-02-04T11:31:12.045Z,2.20
2019-02-04T11:33:38.415Z,1.80
2019-02-04T11:36:04.766Z,2.13
2019-02-04T11:38:31.208Z,1.93
2019-02-04T11:40:57.650Z,1.70
2019-02-04T11:43:24.037Z,1.60
2019-02-04T11:45:50.402Z,1.63
2019-02-04T11:48:16.794Z,1.97
2019-02-04T11:50:43.286Z,2.30
2019-02-04T11:53:09.700Z,2.10
2019-02-04T11:55:36.253Z,1.90
2019-02-04T11:58:02.617Z,2.20
2019-02-04T12:00:29.114Z,2.37
2019-02-04T12:02:55.507Z,2.13
2019-02-04T12:05:21.848Z,1.83
2019-02-04T12:07:48.280Z,2.63
2019-02-04T12:10:14.684Z,2.20
2019-02-04T12:12:41.047Z,1.77
2019-02-04T12:15:07.389Z,2.20
2019-02-04T12:17:33.752Z,1.90
2019-02-04T12:20:00.325Z,2.03
2019-02-04T12:22:26.542Z,2.17
2019-02-04T12:24:52.927Z,1.53
2019-02-04T12:27:19.362Z,1.73
2019-02-04T12:29:45.738Z,1.80
2019-02-04T12:32:12.090Z,2.30
2019-02-04T12:34:38.549Z,1.90
2019-02-04T12:37:05.126Z,2.40
2019-02-04T12:39:31.353Z,2.40
2019-02-04T12:41:57.719Z,2.07
2019-02-04T12:44:24.185Z,2.73
2019-02-04T12:46:52.683Z,2.00
2019-02-04T12:49:20.072Z,2.70
2019-02-04T12:51:45.511Z,2.30
2019-02-04T12:54:12.019Z,2.30
2019-02-04T12:56:38.390Z,2.40
2019-02-04T12:59:04.746Z,2.30
2019-02-04T13:01:31.155Z,2.83
2019-02-04T13:03:57.614Z,2.80
2019-02-04T13:06:23.962Z,2.53
2019-02-04T13:08:50.322Z,2.60
2019-02-04T13:11:16.654Z,2.33
2019-02-04T13:13:43.065Z,2.60
2019-02-04T13:16:09.473Z,2.53
2019-02-04T13:18:35.992Z,2.53
2019-02-04T13:21:02.361Z,1.77
2019-02-04T13:23:30.082Z,2.23
2019-02-04T13:25:56.439Z,2.43
2019-02-04T13:28:22.811Z,2.13
2019-02-04T13:30:49.160Z,1.97
2019-02-04T13:33:15.543Z,1.90
2019-02-04T13:35:41.907Z,2.10
2019-02-04T13:38:08.257Z,2.10
2019-02-04T13:40:34.618Z,1.63
2019-02-04T13:43:01.141Z,2.10
2019-02-04T13:45:27.571Z,2.00
2019-02-04T13:47:53.922Z,1.60
2019-02-04T13:50:20.331Z,1.80
2019-02-04T13:52:46.732Z,2.23
2019-02-04T13:55:13.196Z,2.10
2019-02-04T13:57:40.787Z,2.20
2019-02-04T14:00:05.886Z,2.00
2019-02-04T14:02:32.270Z,1.90
2019-02-04T14:04:58.737Z,1.90
2019-02-04T14:07:25.148Z,1.90
2019-02-04T14:09:51.557Z,1.70
2019-02-04T14:12:17.881Z,1.90
2019-02-04T14:14:44.541Z,2.20
2019-02-04T14:17:10.988Z,2.10
2019-02-04T14:19:37.384Z,1.70
2019-02-04T14:22:09.453Z,1.80
2019-02-04T14:24:30.126Z,2.03
2019-02-04T14:26:56.516Z,2.00
2019-02-04T14:29:22.923Z,2.00
2019-02-04T14:31:49.284Z,1.80
2019-02-04T14:34:15.706Z,1.90
2019-02-04T14:36:42.186Z,2.60
2019-02-04T14:39:08.513Z,1.77
2019-02-04T14:41:34.926Z,1.87
2019-02-04T14:44:01.438Z,1.77
2019-02-04T14:46:27.809Z,1.50
2019-02-04T14:48:54.183Z,2.17
2019-02-04T14:51:20.683Z,1.87
2019-02-04T14:53:46.977Z,1.70
2019-02-04T14:56:13.411Z,1.70
2019-02-04T14:58:39.844Z,2.03
2019-02-04T15:01:06.348Z,1.80
2019-02-04T15:03:32.746Z,1.73
2019-02-04T15:05:59.152Z,1.80
2019-02-04T15:08:33.000Z,1.60
2019-02-04T15:10:51.919Z,1.70
2019-02-04T15:13:18.460Z,1.90
2019-02-04T15:15:44.787Z,1.80
2019-02-04T15:18:11.070Z,1.63
2019-02-04T15:20:37.477Z,1.80
2019-02-04T15:23:03.877Z,1.53
2019-02-04T15:25:30.243Z,1.50
2019-02-04T15:27:56.571Z,1.70
2019-02-04T15:30:23.001Z,1.50
2019-02-04T15:32:49.364Z,1.50
2019-02-04T15:35:15.843Z,1.50
2019-02-04T15:37:42.215Z,1.67
2019-02-04T15:40:08.635Z,2.10
2019-02-04T15:42:34.956Z,1.60
2019-02-04T15:45:01.304Z,1.57
2019-02-04T15:47:27.684Z,2.47
2019-02-04T15:49:54.064Z,1.90
2019-02-04T15:52:20.425Z,1.80
2019-02-04T15:54:47.015Z,2.07
2019-02-04T15:57:13.372Z,1.80
2019-02-04T15:59:39.758Z,1.83
2019-02-04T16:02:06.126Z,1.93
2019-02-04T16:04:32.491Z,1.90
2019-02-04T16:06:58.834Z,1.40
2019-02-04T16:09:25.226Z,1.40
2019-02-04T16:11:53.561Z,1.80
2019-02-04T16:14:19.893Z,1.90
2019-02-04T16:16:46.177Z,2.53
2019-02-04T16:19:12.557Z,2.03
2019-02-04T16:21:39.029Z,2.00
2019-02-04T16:24:05.401Z,1.70
2019-02-04T16:26:31.817Z,1.90
2019-02-04T16:28:58.149Z,1.80
2019-02-04T16:31:24.499Z,1.13
2019-02-04T16:33:50.845Z,1.40
2019-02-04T16:36:17.202Z,1.70
2019-02-04T16:38:43.542Z,1.77
2019-02-04T16:41:09.919Z,1.53
2019-02-04T16:43:36.269Z,1.77
2019-02-04T16:46:02.661Z,1.70
2019-02-04T16:48:29.015Z,1.60
2019-02-04T16:51:10.561Z,1.37
2019-02-04T16:53:21.736Z,1.70
2019-02-04T16:55:48.131Z,2.37
2019-02-04T16:58:14.472Z,1.47
2019-02-04T17:00:40.815Z,1.70
2019-02-04T17:03:07.164Z,1.70
2019-02-04T17:05:33.498Z,1.77
2019-02-04T17:07:59.864Z,1.60
2019-02-04T17:10:26.179Z,1.63
2019-02-04T17:12:52.578Z,1.67
2019-02-04T17:15:19.082Z,1.93
2019-02-04T17:17:45.424Z,1.40
2019-02-04T17:20:11.799Z,1.60
2019-02-04T17:22:38.261Z,1.50
2019-02-04T17:25:04.500Z,1.53
2019-02-04T17:27:30.840Z,1.33
2019-02-04T17:29:57.230Z,1.50
2019-02-04T17:32:23.665Z,1.70
2019-02-04T17:34:50.018Z,1.73
2019-02-04T17:37:16.397Z,1.50
2019-02-04T17:39:42.679Z,1.70
2019-02-04T17:42:09.011Z,1.40
2019-02-04T17:44:35.415Z,1.57
2019-02-04T17:47:01.802Z,1.60
2019-02-04T17:49:28.151Z,1.50
2019-02-04T17:51:54.495Z,1.40
2019-02-04T17:54:20.825Z,1.50
2019-02-04T17:56:47.206Z,1.50
2019-02-04T17:59:13.515Z,1.50
2019-02-04T18:01:39.858Z,1.40
2019-02-04T18:04:06.248Z,1.40
2019-02-04T18:06:32.631Z,1.43
2019-02-04T18:08:58.910Z,1.60
2019-02-04T18:11:25.240Z,1.50
2019-02-04T18:13:51.564Z,1.60
2019-02-04T18:16:17.975Z,1.60
2019-02-04T18:18:44.334Z,1.43
2019-02-04T18:21:10.715Z,1.60
2019-02-04T18:23:45.547Z,1.50
2019-02-04T18:26:03.376Z,1.40
2019-02-04T18:28:29.747Z,1.57
2019-02-04T18:30:56.131Z,1.50
2019-02-04T18:33:22.463Z,1.60
2019-02-04T18:35:48.865Z,1.60
2019-02-04T18:38:15.207Z,1.77
2019-02-04T18:40:41.570Z,1.40
2019-02-04T18:43:07.944Z,1.60
2019-02-04T18:45:34.353Z,1.60
2019-02-04T18:48:00.604Z,1.40
2019-02-04T18:50:26.938Z,1.73
2019-02-04T18:52:53.279Z,1.47
2019-02-04T18:55:19.720Z,1.67
2019-02-04T18:57:46.059Z,1.60
2019-02-04T19:00:12.476Z,1.90
2019-02-04T19:02:38.823Z,1.37
2019-02-04T19:05:05.157Z,1.67
2019-02-04T19:07:31.537Z,1.43
2019-02-04T19:09:57.958Z,1.40
2019-02-04T19:12:24.271Z,1.50
2019-02-04T19:14:50.660Z,1.60
2019-02-04T19:17:16.990Z,1.60
2019-02-04T19:19:43.326Z,1.63
2019-02-04T19:22:09.665Z,1.60
2019-02-04T19:24:36.026Z,1.50
2019-02-04T19:27:02.455Z,1.43
2019-02-04T19:29:28.859Z,1.60
2019-02-04T19:31:55.240Z,1.30
2019-02-04T19:34:21.589Z,1.63
2019-02-04T19:36:47.927Z,1.43
2019-02-04T19:39:14.344Z,1.50
2019-02-04T19:41:40.708Z,1.60
2019-02-04T19:44:07.078Z,1.70
2019-02-04T19:46:33.344Z,1.40
2019-02-04T19:48:59.684Z,1.67
2019-02-04T19:51:26.015Z,1.77
2019-02-04T19:53:52.346Z,1.60
2019-02-04T19:56:18.716Z,1.50
2019-02-04T19:58:45.093Z,1.90
2019-02-04T20:01:11.401Z,1.40
2019-02-04T20:03:37.761Z,1.50
2019-02-04T20:06:04.094Z,1.40
2019-02-04T20:08:30.415Z,1.40
2019-02-04T20:10:56.784Z,1.50
2019-02-04T20:13:23.108Z,1.40
2019-02-04T20:15:49.445Z,1.53
2019-02-04T20:18:15.827Z,1.57
2019-02-04T20:20:42.656Z,1.70
2019-02-04T20:23:08.520Z,1.47
2019-02-04T20:25:34.853Z,1.50
2019-02-04T20:28:01.231Z,1.63
2019-02-04T20:30:27.609Z,1.60
2019-02-04T20:32:53.986Z,1.67
2019-02-04T20:35:20.307Z,1.73
2019-02-04T20:37:46.649Z,1.67
2019-02-04T20:40:12.985Z,1.47
2019-02-04T20:42:39.320Z,1.50
2019-02-04T20:45:05.670Z,1.60
2019-02-04T20:47:32.049Z,1.47
2019-02-04T20:49:58.377Z,1.60
2019-02-04T20:52:24.703Z,1.60
2019-02-04T20:54:51.041Z,1.37
2019-02-04T20:57:17.375Z,1.50
2019-02-04T20:59:43.732Z,1.40
2019-02-04T21:02:10.063Z,1.70
2019-02-04T21:04:36.465Z,1.70
2019-02-04T21:07:02.890Z,1.67
2019-02-04T21:09:29.230Z,1.60
2019-02-04T21:11:55.593Z,1.40
2019-02-04T21:14:21.916Z,1.50
2019-02-04T21:16:48.296Z,1.60
2019-02-04T21:19:14.631Z,1.60
2019-02-04T21:21:40.953Z,1.50
2019-02-04T21:24:07.318Z,1.50
2019-02-04T21:26:33.668Z,1.43
2019-02-04T21:29:00.002Z,2.30
2019-02-04T21:31:26.329Z,1.70
2019-02-04T21:33:52.663Z,1.50
2019-02-04T21:36:18.996Z,1.70
2019-02-04T21:38:45.327Z,1.70
2019-02-04T21:41:11.657Z,1.73
2019-02-04T21:43:38.042Z,1.60
2019-02-04T21:46:04.385Z,1.60
2019-02-04T21:48:30.711Z,1.70
2019-02-04T21:50:57.108Z,1.60
2019-02-04T21:53:23.511Z,1.60
2019-02-04T21:55:49.826Z,1.50
2019-02-04T21:58:16.159Z,1.70
2019-02-04T22:00:42.509Z,1.60
2019-02-04T22:03:08.833Z,1.60
2019-02-04T22:05:35.175Z,1.60
2019-02-04T22:08:01.523Z,1.77
2019-02-04T22:10:27.875Z,1.67
2019-02-04T22:12:54.228Z,1.70
2019-02-04T22:15:20.566Z,1.50
2019-02-04T22:17:46.897Z,1.70
2019-02-04T22:20:13.253Z,1.83
2019-02-04T22:22:39.597Z,1.70
2019-02-04T22:25:05.931Z,1.83
2019-02-04T22:27:32.286Z,1.70
2019-02-04T22:29:58.617Z,2.00
2019-02-04T22:32:25.006Z,1.70
2019-02-04T22:34:51.442Z,1.60
2019-02-04T22:37:17.788Z,1.77
2019-02-04T22:39:44.127Z,1.50
2019-02-04T22:42:10.485Z,1.63
2019-02-04T22:44:36.814Z,1.50
2019-02-04T22:47:03.155Z,1.77
2019-02-04T22:49:29.527Z,1.87
2019-02-04T22:51:55.812Z,1.90
2019-02-04T22:54:22.189Z,1.93
2019-02-04T22:56:48.653Z,1.87
2019-02-04T22:59:14.974Z,1.60
2019-02-04T23:01:41.307Z,2.20
2019-02-04T23:04:07.665Z,1.70
2019-02-04T23:06:34.045Z,2.10
2019-02-04T23:09:00.375Z,1.97
2019-02-04T23:11:26.713Z,1.90
2019-02-04T23:13:53.034Z,1.60
2019-02-04T23:16:19.432Z,1.73
2019-02-04T23:18:45.764Z,1.97
2019-02-04T23:21:12.136Z,1.67
2019-02-04T23:23:38.497Z,2.00
2019-02-04T23:26:04.845Z,1.80
2019-02-04T23:28:31.118Z,1.70
2019-02-04T23:30:57.455Z,1.80
2019-02-04T23:33:33.928Z,2.03
2019-02-04T23:35:50.184Z,1.83
2019-02-04T23:38:16.516Z,2.10
2019-02-04T23:40:42.876Z,2.00
2019-02-04T23:43:09.208Z,1.90
2019-02-04T23:45:35.536Z,1.87
2019-02-04T23:48:01.863Z,1.77
2019-02-04T23:50:28.206Z,2.00
2019-02-04T23:52:54.565Z,1.70
2019-02-04T23:55:20.854Z,2.00
2019-02-04T23:57:47.188Z,1.47
